sensor_id;sensor_type;location;lat;lon;timestamp;P1;durP1;ratioP1;P2;durP2;ratioP2
65031;SDS011;51593;55.714;37.436;2022-12-07T00:01:21;9.60;;;4.40;;
65031;SDS011;51593;55.714;37.436;2022-12-07T00:03:48;8.50;;;3.67;;
65031;SDS011;51593;55.714;37.436;2022-12-07T00:06:15;11.50;;;3.83;;
65031;SDS011;51593;55.714;37.436;2022-12-07T00:08:42;11.30;;;4.05;;
65031;SDS011;51593;55.714;37.436;2022-12-07T00:11:09;8.55;;;4.25;;
65031;SDS011;51593;55.714;37.436;2022-12-07T00:13:36;8.20;;;3.72;;
65031;SDS011;51593;55.714;37.436;2022-12-07T00:16:03;9.45;;;4.30;;
65031;SDS011;51593;55.714;37.436;2022-12-07T00:18:31;12.45;;;3.95;;
65031;SDS011;51593;55.714;37.436;2022-12-07T00:21:16;9.55;;;4.20;;
65031;SDS011;51593;55.714;37.436;2022-12-07T00:23:44;8.07;;;3.25;;
65031;SDS011;51593;55.714;37.436;2022-12-07T00:26:15;11.77;;;4.03;;
65031;SDS011;51593;55.714;37.436;2022-12-07T00:28:49;9.13;;;3.70;;
65031;SDS011;51593;55.714;37.436;2022-12-07T00:31:16;8.68;;;4.10;;
65031;SDS011;51593;55.714;37.436;2022-12-07T00:33:43;10.32;;;4.30;;
65031;SDS011;51593;55.714;37.436;2022-12-07T00:36:10;8.73;;;4.30;;
65031;SDS011;51593;55.714;37.436;2022-12-07T00:38:38;9.20;;;4.20;;
65031;SDS011;51593;55.714;37.436;2022-12-07T00:41:09;9.05;;;4.50;;
65031;SDS011;51593;55.714;37.436;2022-12-07T00:43:36;12.45;;;4.68;;
65031;SDS011;51593;55.714;37.436;2022-12-07T00:46:02;10.27;;;4.40;;
65031;SDS011;51593;55.714;37.436;2022-12-07T00:48:28;10.70;;;4.57;;
65031;SDS011;51593;55.714;37.436;2022-12-07T00:50:54;12.32;;;5.13;;
65031;SDS011;51593;55.714;37.436;2022-12-07T00:53:20;12.35;;;4.80;;
65031;SDS011;51593;55.714;37.436;2022-12-07T00:55:45;11.70;;;4.50;;
65031;SDS011;51593;55.714;37.436;2022-12-07T00:58:11;10.82;;;3.65;;
65031;SDS011;51593;55.714;37.436;2022-12-07T01:00:38;8.65;;;4.13;;
65031;SDS011;51593;55.714;37.436;2022-12-07T01:03:06;12.23;;;4.72;;
65031;SDS011;51593;55.714;37.436;2022-12-07T01:05:33;10.80;;;4.22;;
65031;SDS011;51593;55.714;37.436;2022-12-07T01:07:59;10.82;;;4.25;;
65031;SDS011;51593;55.714;37.436;2022-12-07T01:10:26;10.25;;;4.22;;
65031;SDS011;51593;55.714;37.436;2022-12-07T01:12:52;9.75;;;4.25;;
65031;SDS011;51593;55.714;37.436;2022-12-07T01:15:18;10.57;;;4.32;;
65031;SDS011;51593;55.714;37.436;2022-12-07T01:17:44;10.60;;;4.18;;
65031;SDS011;51593;55.714;37.436;2022-12-07T01:20:10;9.93;;;3.80;;
65031;SDS011;51593;55.714;37.436;2022-12-07T01:22:37;9.00;;;4.15;;
65031;SDS011;51593;55.714;37.436;2022-12-07T01:25:04;10.48;;;4.40;;
65031;SDS011;51593;55.714;37.436;2022-12-07T01:27:31;9.43;;;4.45;;
65031;SDS011;51593;55.714;37.436;2022-12-07T01:29:58;8.27;;;4.03;;
65031;SDS011;51593;55.714;37.436;2022-12-07T01:32:24;10.65;;;4.57;;
65031;SDS011;51593;55.714;37.436;2022-12-07T01:34:49;10.82;;;4.15;;
65031;SDS011;51593;55.714;37.436;2022-12-07T01:37:15;8.55;;;4.10;;
65031;SDS011;51593;55.714;37.436;2022-12-07T01:39:41;11.07;;;4.13;;
65031;SDS011;51593;55.714;37.436;2022-12-07T01:42:10;9.43;;;4.35;;
65031;SDS011;51593;55.714;37.436;2022-12-07T01:47:40;11.85;;;4.63;;
65031;SDS011;51593;55.714;37.436;2022-12-07T01:50:07;9.43;;;4.53;;
65031;SDS011;51593;55.714;37.436;2022-12-07T01:52:33;14.88;;;4.85;;
65031;SDS011;51593;55.714;37.436;2022-12-07T01:55:02;18.67;;;5.13;;
65031;SDS011;51593;55.714;37.436;2022-12-07T01:57:30;10.30;;;4.80;;
65031;SDS011;51593;55.714;37.436;2022-12-07T01:59:57;8.63;;;3.85;;
65031;SDS011;51593;55.714;37.436;2022-12-07T02:02:42;10.80;;;4.53;;
65031;SDS011;51593;55.714;37.436;2022-12-07T02:05:09;13.10;;;5.18;;
65031;SDS011;51593;55.714;37.436;2022-12-07T02:07:37;13.00;;;4.68;;
65031;SDS011;51593;55.714;37.436;2022-12-07T02:10:20;11.77;;;3.60;;
65031;SDS011;51593;55.714;37.436;2022-12-07T02:12:48;12.57;;;4.50;;
65031;SDS011;51593;55.714;37.436;2022-12-07T02:15:50;11.18;;;4.32;;
65031;SDS011;51593;55.714;37.436;2022-12-07T02:21:48;10.02;;;4.90;;
65031;SDS011;51593;55.714;37.436;2022-12-07T02:30:12;11.10;;;4.45;;
65031;SDS011;51593;55.714;37.436;2022-12-07T02:32:45;8.80;;;4.15;;
65031;SDS011;51593;55.714;37.436;2022-12-07T02:38:18;11.80;;;4.75;;
65031;SDS011;51593;55.714;37.436;2022-12-07T02:43:24;11.13;;;4.88;;
65031;SDS011;51593;55.714;37.436;2022-12-07T02:45:52;12.15;;;4.50;;
65031;SDS011;51593;55.714;37.436;2022-12-07T02:48:20;10.50;;;4.60;;
65031;SDS011;51593;55.714;37.436;2022-12-07T02:50:51;11.88;;;4.78;;
65031;SDS011;51593;55.714;37.436;2022-12-07T03:01:50;12.02;;;4.25;;
65031;SDS011;51593;55.714;37.436;2022-12-07T03:07:10;9.38;;;4.10;;
65031;SDS011;51593;55.714;37.436;2022-12-07T03:15:43;9.85;;;4.53;;
65031;SDS011;51593;55.714;37.436;2022-12-07T03:18:10;11.13;;;4.78;;
65031;SDS011;51593;55.714;37.436;2022-12-07T03:20:39;15.73;;;4.78;;
65031;SDS011;51593;55.714;37.436;2022-12-07T03:23:05;13.43;;;4.55;;
65031;SDS011;51593;55.714;37.436;2022-12-07T03:25:35;9.52;;;4.10;;
65031;SDS011;51593;55.714;37.436;2022-12-07T03:28:05;15.98;;;4.95;;
65031;SDS011;51593;55.714;37.436;2022-12-07T03:30:33;10.63;;;4.45;;
65031;SDS011;51593;55.714;37.436;2022-12-07T03:33:07;8.05;;;4.13;;
65031;SDS011;51593;55.714;37.436;2022-12-07T03:35:37;9.73;;;4.82;;
65031;SDS011;51593;55.714;37.436;2022-12-07T03:40:43;11.68;;;5.25;;
65031;SDS011;51593;55.714;37.436;2022-12-07T03:43:14;14.20;;;5.07;;
65031;SDS011;51593;55.714;37.436;2022-12-07T03:45:43;9.43;;;4.35;;
65031;SDS011;51593;55.714;37.436;2022-12-07T03:48:27;10.73;;;4.80;;
65031;SDS011;51593;55.714;37.436;2022-12-07T03:53:36;9.73;;;4.43;;
65031;SDS011;51593;55.714;37.436;2022-12-07T03:56:07;9.45;;;4.55;;
65031;SDS011;51593;55.714;37.436;2022-12-07T03:58:37;10.50;;;3.42;;
65031;SDS011;51593;55.714;37.436;2022-12-07T04:01:03;13.05;;;4.90;;
65031;SDS011;51593;55.714;37.436;2022-12-07T04:03:29;8.70;;;3.88;;
65031;SDS011;51593;55.714;37.436;2022-12-07T04:05:55;9.80;;;4.32;;
65031;SDS011;51593;55.714;37.436;2022-12-07T04:08:21;11.98;;;3.50;;
65031;SDS011;51593;55.714;37.436;2022-12-07T04:10:47;10.15;;;4.55;;
65031;SDS011;51593;55.714;37.436;2022-12-07T04:13:12;9.20;;;4.22;;
65031;SDS011;51593;55.714;37.436;2022-12-07T04:15:38;11.32;;;4.70;;
65031;SDS011;51593;55.714;37.436;2022-12-07T04:18:04;17.45;;;6.07;;
65031;SDS011;51593;55.714;37.436;2022-12-07T04:20:29;18.08;;;5.13;;
65031;SDS011;51593;55.714;37.436;2022-12-07T04:22:55;8.98;;;4.05;;
65031;SDS011;51593;55.714;37.436;2022-12-07T04:25:21;9.00;;;3.63;;
65031;SDS011;51593;55.714;37.436;2022-12-07T04:27:47;8.60;;;3.63;;
65031;SDS011;51593;55.714;37.436;2022-12-07T04:30:12;12.15;;;4.65;;
65031;SDS011;51593;55.714;37.436;2022-12-07T04:32:38;13.57;;;5.03;;
65031;SDS011;51593;55.714;37.436;2022-12-07T04:35:04;6.95;;;3.72;;
65031;SDS011;51593;55.714;37.436;2022-12-07T04:37:30;6.63;;;2.80;;
65031;SDS011;51593;55.714;37.436;2022-12-07T04:39:56;6.82;;;3.35;;
65031;SDS011;51593;55.714;37.436;2022-12-07T04:42:22;6.85;;;3.22;;
65031;SDS011;51593;55.714;37.436;2022-12-07T04:44:47;7.88;;;3.63;;
65031;SDS011;51593;55.714;37.436;2022-12-07T04:47:32;9.52;;;4.45;;
65031;SDS011;51593;55.714;37.436;2022-12-07T04:49:58;10.80;;;4.22;;
65031;SDS011;51593;55.714;37.436;2022-12-07T04:52:23;10.27;;;3.53;;
65031;SDS011;51593;55.714;37.436;2022-12-07T04:54:49;11.05;;;4.32;;
65031;SDS011;51593;55.714;37.436;2022-12-07T04:57:15;8.02;;;4.10;;
65031;SDS011;51593;55.714;37.436;2022-12-07T04:59:41;9.88;;;4.63;;
65031;SDS011;51593;55.714;37.436;2022-12-07T05:02:06;14.35;;;4.50;;
65031;SDS011;51593;55.714;37.436;2022-12-07T05:04:32;7.57;;;3.90;;
65031;SDS011;51593;55.714;37.436;2022-12-07T05:06:58;10.02;;;3.80;;
65031;SDS011;51593;55.714;37.436;2022-12-07T05:09:23;6.47;;;3.50;;
65031;SDS011;51593;55.714;37.436;2022-12-07T05:11:49;9.30;;;4.30;;
65031;SDS011;51593;55.714;37.436;2022-12-07T05:14:19;7.10;;;3.47;;
65031;SDS011;51593;55.714;37.436;2022-12-07T05:16:46;9.13;;;4.00;;
65031;SDS011;51593;55.714;37.436;2022-12-07T05:19:13;7.40;;;3.85;;
65031;SDS011;51593;55.714;37.436;2022-12-07T05:21:39;11.57;;;4.35;;
65031;SDS011;51593;55.714;37.436;2022-12-07T05:24:06;12.18;;;4.15;;
65031;SDS011;51593;55.714;37.436;2022-12-07T05:26:33;9.63;;;4.47;;
65031;SDS011;51593;55.714;37.436;2022-12-07T05:28:59;8.73;;;4.40;;
65031;SDS011;51593;55.714;37.436;2022-12-07T05:31:25;11.48;;;4.30;;
65031;SDS011;51593;55.714;37.436;2022-12-07T05:33:51;11.18;;;4.28;;
65031;SDS011;51593;55.714;37.436;2022-12-07T05:36:17;8.57;;;4.28;;
65031;SDS011;51593;55.714;37.436;2022-12-07T05:38:43;11.23;;;4.70;;
65031;SDS011;51593;55.714;37.436;2022-12-07T05:41:09;11.90;;;4.38;;
65031;SDS011;51593;55.714;37.436;2022-12-07T05:43:58;12.35;;;4.80;;
65031;SDS011;51593;55.714;37.436;2022-12-07T05:46:24;17.65;;;5.93;;
65031;SDS011;51593;55.714;37.436;2022-12-07T05:48:50;14.43;;;4.88;;
65031;SDS011;51593;55.714;37.436;2022-12-07T05:51:16;9.77;;;4.20;;
65031;SDS011;51593;55.714;37.436;2022-12-07T05:53:42;11.20;;;4.70;;
65031;SDS011;51593;55.714;37.436;2022-12-07T05:56:08;7.75;;;4.13;;
65031;SDS011;51593;55.714;37.436;2022-12-07T05:58:34;10.00;;;4.47;;
65031;SDS011;51593;55.714;37.436;2022-12-07T06:01:18;9.73;;;4.47;;
65031;SDS011;51593;55.714;37.436;2022-12-07T06:03:44;11.95;;;4.32;;
65031;SDS011;51593;55.714;37.436;2022-12-07T06:06:10;11.48;;;4.45;;
65031;SDS011;51593;55.714;37.436;2022-12-07T06:08:36;13.70;;;4.65;;
65031;SDS011;51593;55.714;37.436;2022-12-07T06:11:02;13.60;;;5.03;;
65031;SDS011;51593;55.714;37.436;2022-12-07T06:13:46;7.77;;;4.10;;
65031;SDS011;51593;55.714;37.436;2022-12-07T06:16:12;10.20;;;3.83;;
65031;SDS011;51593;55.714;37.436;2022-12-07T06:18:38;8.90;;;4.40;;
65031;SDS011;51593;55.714;37.436;2022-12-07T06:21:03;10.45;;;4.85;;
65031;SDS011;51593;55.714;37.436;2022-12-07T06:23:29;9.10;;;4.45;;
65031;SDS011;51593;55.714;37.436;2022-12-07T06:25:55;12.52;;;5.43;;
65031;SDS011;51593;55.714;37.436;2022-12-07T06:28:21;13.60;;;4.75;;
65031;SDS011;51593;55.714;37.436;2022-12-07T06:30:46;15.02;;;5.53;;
65031;SDS011;51593;55.714;37.436;2022-12-07T06:33:12;14.52;;;5.40;;
65031;SDS011;51593;55.714;37.436;2022-12-07T06:35:38;10.50;;;4.40;;
65031;SDS011;51593;55.714;37.436;2022-12-07T06:38:04;10.20;;;4.80;;
65031;SDS011;51593;55.714;37.436;2022-12-07T06:40:29;12.05;;;4.28;;
65031;SDS011;51593;55.714;37.436;2022-12-07T06:42:55;11.55;;;5.10;;
65031;SDS011;51593;55.714;37.436;2022-12-07T06:45:20;14.57;;;5.75;;
65031;SDS011;51593;55.714;37.436;2022-12-07T06:47:46;19.92;;;5.93;;
65031;SDS011;51593;55.714;37.436;2022-12-07T06:50:13;14.10;;;6.32;;
65031;SDS011;51593;55.714;37.436;2022-12-07T06:52:39;10.55;;;4.70;;
65031;SDS011;51593;55.714;37.436;2022-12-07T06:55:05;11.13;;;4.88;;
65031;SDS011;51593;55.714;37.436;2022-12-07T06:57:31;17.42;;;5.10;;
65031;SDS011;51593;55.714;37.436;2022-12-07T06:59:57;9.98;;;4.97;;
65031;SDS011;51593;55.714;37.436;2022-12-07T07:02:22;11.85;;;4.95;;
65031;SDS011;51593;55.714;37.436;2022-12-07T07:04:48;10.25;;;5.05;;
65031;SDS011;51593;55.714;37.436;2022-12-07T07:07:14;10.95;;;5.38;;
65031;SDS011;51593;55.714;37.436;2022-12-07T07:09:41;14.07;;;5.22;;
65031;SDS011;51593;55.714;37.436;2022-12-07T07:12:06;10.55;;;5.13;;
65031;SDS011;51593;55.714;37.436;2022-12-07T07:14:32;10.77;;;4.88;;
65031;SDS011;51593;55.714;37.436;2022-12-07T07:16:58;10.15;;;4.80;;
65031;SDS011;51593;55.714;37.436;2022-12-07T07:19:23;18.35;;;5.68;;
65031;SDS011;51593;55.714;37.436;2022-12-07T07:21:49;9.18;;;4.75;;
65031;SDS011;51593;55.714;37.436;2022-12-07T07:24:15;10.20;;;4.65;;
65031;SDS011;51593;55.714;37.436;2022-12-07T07:26:40;12.93;;;5.03;;
65031;SDS011;51593;55.714;37.436;2022-12-07T07:29:06;10.75;;;5.22;;
65031;SDS011;51593;55.714;37.436;2022-12-07T07:31:32;10.13;;;5.03;;
65031;SDS011;51593;55.714;37.436;2022-12-07T07:34:00;10.27;;;5.10;;
65031;SDS011;51593;55.714;37.436;2022-12-07T07:36:26;12.30;;;5.30;;
65031;SDS011;51593;55.714;37.436;2022-12-07T07:38:52;9.93;;;4.50;;
65031;SDS011;51593;55.714;37.436;2022-12-07T07:41:18;17.80;;;5.60;;
65031;SDS011;51593;55.714;37.436;2022-12-07T07:43:44;11.10;;;4.88;;
65031;SDS011;51593;55.714;37.436;2022-12-07T07:46:09;10.98;;;5.10;;
65031;SDS011;51593;55.714;37.436;2022-12-07T07:48:35;11.80;;;5.07;;
65031;SDS011;51593;55.714;37.436;2022-12-07T07:51:04;11.75;;;4.43;;
65031;SDS011;51593;55.714;37.436;2022-12-07T07:53:32;12.05;;;5.30;;
65031;SDS011;51593;55.714;37.436;2022-12-07T07:55:58;16.08;;;5.40;;
65031;SDS011;51593;55.714;37.436;2022-12-07T07:58:24;16.08;;;5.68;;
65031;SDS011;51593;55.714;37.436;2022-12-07T08:00:49;12.15;;;5.15;;
65031;SDS011;51593;55.714;37.436;2022-12-07T08:03:15;15.93;;;6.15;;
65031;SDS011;51593;55.714;37.436;2022-12-07T08:05:41;14.98;;;5.97;;
65031;SDS011;51593;55.714;37.436;2022-12-07T08:08:07;11.20;;;5.68;;
65031;SDS011;51593;55.714;37.436;2022-12-07T08:10:32;10.65;;;4.65;;
65031;SDS011;51593;55.714;37.436;2022-12-07T08:13:00;13.00;;;5.10;;
65031;SDS011;51593;55.714;37.436;2022-12-07T08:15:39;12.65;;;6.20;;
65031;SDS011;51593;55.714;37.436;2022-12-07T08:18:06;11.38;;;5.65;;
65031;SDS011;51593;55.714;37.436;2022-12-07T08:20:33;13.77;;;5.75;;
65031;SDS011;51593;55.714;37.436;2022-12-07T08:23:00;14.57;;;5.57;;
65031;SDS011;51593;55.714;37.436;2022-12-07T08:25:26;13.43;;;6.28;;
65031;SDS011;51593;55.714;37.436;2022-12-07T08:27:52;13.00;;;7.00;;
65031;SDS011;51593;55.714;37.436;2022-12-07T08:30:18;20.20;;;7.05;;
65031;SDS011;51593;55.714;37.436;2022-12-07T08:32:45;12.60;;;5.88;;
65031;SDS011;51593;55.714;37.436;2022-12-07T08:35:11;11.10;;;5.45;;
65031;SDS011;51593;55.714;37.436;2022-12-07T08:37:38;11.18;;;5.32;;
65031;SDS011;51593;55.714;37.436;2022-12-07T08:40:05;16.30;;;6.85;;
65031;SDS011;51593;55.714;37.436;2022-12-07T08:42:32;11.65;;;5.43;;
65031;SDS011;51593;55.714;37.436;2022-12-07T08:45:05;17.30;;;6.50;;
65031;SDS011;51593;55.714;37.436;2022-12-07T08:47:32;12.43;;;5.60;;
65031;SDS011;51593;55.714;37.436;2022-12-07T08:49:59;10.35;;;5.32;;
65031;SDS011;51593;55.714;37.436;2022-12-07T08:52:29;20.48;;;5.47;;
65031;SDS011;51593;55.714;37.436;2022-12-07T08:54:55;11.27;;;6.43;;
65031;SDS011;51593;55.714;37.436;2022-12-07T08:57:22;14.40;;;6.70;;
65031;SDS011;51593;55.714;37.436;2022-12-07T08:59:47;32.88;;;5.53;;
65031;SDS011;51593;55.714;37.436;2022-12-07T09:02:13;14.00;;;5.60;;
65031;SDS011;51593;55.714;37.436;2022-12-07T09:04:39;12.77;;;5.50;;
65031;SDS011;51593;55.714;37.436;2022-12-07T09:07:05;11.30;;;5.57;;
65031;SDS011;51593;55.714;37.436;2022-12-07T09:09:31;13.40;;;5.70;;
65031;SDS011;51593;55.714;37.436;2022-12-07T09:11:57;14.05;;;4.60;;
65031;SDS011;51593;55.714;37.436;2022-12-07T09:14:23;11.23;;;5.35;;
65031;SDS011;51593;55.714;37.436;2022-12-07T09:16:48;13.88;;;6.00;;
65031;SDS011;51593;55.714;37.436;2022-12-07T09:19:14;10.90;;;4.68;;
65031;SDS011;51593;55.714;37.436;2022-12-07T09:21:40;12.90;;;4.57;;
65031;SDS011;51593;55.714;37.436;2022-12-07T09:24:06;9.75;;;4.95;;
65031;SDS011;51593;55.714;37.436;2022-12-07T09:26:31;11.98;;;4.90;;
65031;SDS011;51593;55.714;37.436;2022-12-07T09:28:57;11.65;;;5.45;;
65031;SDS011;51593;55.714;37.436;2022-12-07T09:31:23;11.52;;;4.95;;
65031;SDS011;51593;55.714;37.436;2022-12-07T09:33:55;12.25;;;5.20;;
65031;SDS011;51593;55.714;37.436;2022-12-07T09:36:21;12.63;;;4.88;;
65031;SDS011;51593;55.714;37.436;2022-12-07T09:38:47;14.07;;;5.32;;
65031;SDS011;51593;55.714;37.436;2022-12-07T09:41:13;15.27;;;5.28;;
65031;SDS011;51593;55.714;37.436;2022-12-07T09:43:40;14.25;;;4.82;;
65031;SDS011;51593;55.714;37.436;2022-12-07T09:46:08;12.07;;;5.38;;
65031;SDS011;51593;55.714;37.436;2022-12-07T09:48:36;12.52;;;5.35;;
65031;SDS011;51593;55.714;37.436;2022-12-07T09:51:20;12.20;;;4.68;;
65031;SDS011;51593;55.714;37.436;2022-12-07T09:53:48;14.02;;;5.93;;
65031;SDS011;51593;55.714;37.436;2022-12-07T09:56:16;10.95;;;5.05;;
65031;SDS011;51593;55.714;37.436;2022-12-07T09:58:43;9.50;;;4.65;;
65031;SDS011;51593;55.714;37.436;2022-12-07T10:06:47;8.40;;;4.13;;
65031;SDS011;51593;55.714;37.436;2022-12-07T10:09:14;15.60;;;5.03;;
65031;SDS011;51593;55.714;37.436;2022-12-07T10:12:05;8.88;;;4.00;;
65031;SDS011;51593;55.714;37.436;2022-12-07T10:14:33;13.13;;;4.65;;
65031;SDS011;51593;55.714;37.436;2022-12-07T10:17:01;10.13;;;4.53;;
65031;SDS011;51593;55.714;37.436;2022-12-07T10:19:31;12.90;;;4.70;;
65031;SDS011;51593;55.714;37.436;2022-12-07T10:24:31;13.65;;;5.35;;
65031;SDS011;51593;55.714;37.436;2022-12-07T10:26:57;11.90;;;5.10;;
65031;SDS011;51593;55.714;37.436;2022-12-07T10:29:33;11.80;;;5.57;;
65031;SDS011;51593;55.714;37.436;2022-12-07T10:32:03;11.75;;;5.07;;
65031;SDS011;51593;55.714;37.436;2022-12-07T10:34:49;12.30;;;4.65;;
65031;SDS011;51593;55.714;37.436;2022-12-07T10:37:18;8.63;;;4.35;;
65031;SDS011;51593;55.714;37.436;2022-12-07T10:42:22;14.43;;;4.82;;
65031;SDS011;51593;55.714;37.436;2022-12-07T10:44:49;10.90;;;4.60;;
65031;SDS011;51593;55.714;37.436;2022-12-07T10:50:28;15.13;;;4.85;;
65031;SDS011;51593;55.714;37.436;2022-12-07T11:04:43;10.60;;;4.60;;
65031;SDS011;51593;55.714;37.436;2022-12-07T11:20:58;16.17;;;5.90;;
65031;SDS011;51593;55.714;37.436;2022-12-07T11:32:03;11.13;;;5.32;;
65031;SDS011;51593;55.714;37.436;2022-12-07T11:35:03;17.15;;;5.38;;
65031;SDS011;51593;55.714;37.436;2022-12-07T11:37:34;12.82;;;5.75;;
65031;SDS011;51593;55.714;37.436;2022-12-07T11:40:47;8.82;;;4.18;;
65031;SDS011;51593;55.714;37.436;2022-12-07T11:42:59;13.05;;;5.78;;
65031;SDS011;51593;55.714;37.436;2022-12-07T11:45:29;11.95;;;5.15;;
65031;SDS011;51593;55.714;37.436;2022-12-07T11:48:01;12.30;;;5.13;;
65031;SDS011;51593;55.714;37.436;2022-12-07T11:50:33;11.45;;;5.28;;
65031;SDS011;51593;55.714;37.436;2022-12-07T11:53:21;13.30;;;5.53;;
65031;SDS011;51593;55.714;37.436;2022-12-07T11:58:38;13.95;;;5.90;;
65031;SDS011;51593;55.714;37.436;2022-12-07T12:01:26;14.98;;;6.57;;
65031;SDS011;51593;55.714;37.436;2022-12-07T12:06:35;10.90;;;4.40;;
65031;SDS011;51593;55.714;37.436;2022-12-07T12:20:31;7.82;;;3.72;;
65031;SDS011;51593;55.714;37.436;2022-12-07T12:23:05;8.65;;;3.95;;
65031;SDS011;51593;55.714;37.436;2022-12-07T12:25:35;11.02;;;5.20;;
65031;SDS011;51593;55.714;37.436;2022-12-07T12:28:05;10.88;;;5.53;;
65031;SDS011;51593;55.714;37.436;2022-12-07T12:30:38;15.02;;;6.03;;
65031;SDS011;51593;55.714;37.436;2022-12-07T12:33:06;15.33;;;6.37;;
65031;SDS011;51593;55.714;37.436;2022-12-07T12:35:39;13.27;;;5.53;;
65031;SDS011;51593;55.714;37.436;2022-12-07T12:40:48;16.85;;;7.20;;
65031;SDS011;51593;55.714;37.436;2022-12-07T12:51:48;15.48;;;5.88;;
65031;SDS011;51593;55.714;37.436;2022-12-07T12:54:31;11.88;;;5.57;;
65031;SDS011;51593;55.714;37.436;2022-12-07T13:04:53;13.45;;;6.38;;
65031;SDS011;51593;55.714;37.436;2022-12-07T13:12:58;13.05;;;6.22;;
65031;SDS011;51593;55.714;37.436;2022-12-07T13:17:59;16.85;;;7.88;;
65031;SDS011;51593;55.714;37.436;2022-12-07T13:20:48;10.52;;;5.32;;
65031;SDS011;51593;55.714;37.436;2022-12-07T13:23:19;12.77;;;6.32;;
65031;SDS011;51593;55.714;37.436;2022-12-07T13:28:38;14.57;;;6.38;;
65031;SDS011;51593;55.714;37.436;2022-12-07T13:33:47;18.10;;;6.63;;
65031;SDS011;51593;55.714;37.436;2022-12-07T13:36:26;17.77;;;5.85;;
65031;SDS011;51593;55.714;37.436;2022-12-07T13:38:57;15.63;;;7.07;;
65031;SDS011;51593;55.714;37.436;2022-12-07T13:41:24;13.30;;;5.25;;
65031;SDS011;51593;55.714;37.436;2022-12-07T13:44:03;11.40;;;5.43;;
65031;SDS011;51593;55.714;37.436;2022-12-07T13:46:43;25.45;;;7.63;;
65031;SDS011;51593;55.714;37.436;2022-12-07T13:49:17;11.85;;;4.95;;
65031;SDS011;51593;55.714;37.436;2022-12-07T13:51:47;16.15;;;7.47;;
65031;SDS011;51593;55.714;37.436;2022-12-07T13:54:13;11.13;;;4.85;;
65031;SDS011;51593;55.714;37.436;2022-12-07T13:56:39;18.13;;;7.22;;
65031;SDS011;51593;55.714;37.436;2022-12-07T13:59:09;11.35;;;5.20;;
65031;SDS011;51593;55.714;37.436;2022-12-07T14:01:39;18.83;;;7.00;;
65031;SDS011;51593;55.714;37.436;2022-12-07T14:06:55;12.63;;;5.88;;
65031;SDS011;51593;55.714;37.436;2022-12-07T14:09:22;13.05;;;6.28;;
65031;SDS011;51593;55.714;37.436;2022-12-07T14:11:49;16.20;;;7.53;;
65031;SDS011;51593;55.714;37.436;2022-12-07T14:14:29;19.77;;;7.10;;
65031;SDS011;51593;55.714;37.436;2022-12-07T14:16:57;15.50;;;6.72;;
65031;SDS011;51593;55.714;37.436;2022-12-07T14:19:45;14.38;;;5.57;;
65031;SDS011;51593;55.714;37.436;2022-12-07T14:24:59;9.90;;;4.95;;
65031;SDS011;51593;55.714;37.436;2022-12-07T14:27:29;10.52;;;4.18;;
65031;SDS011;51593;55.714;37.436;2022-12-07T14:29:59;11.95;;;5.47;;
65031;SDS011;51593;55.714;37.436;2022-12-07T14:32:28;18.48;;;5.13;;
65031;SDS011;51593;55.714;37.436;2022-12-07T14:34:59;13.93;;;6.63;;
65031;SDS011;51593;55.714;37.436;2022-12-07T14:37:32;16.05;;;5.95;;
65031;SDS011;51593;55.714;37.436;2022-12-07T14:39:58;14.07;;;5.53;;
65031;SDS011;51593;55.714;37.436;2022-12-07T14:42:25;14.40;;;6.53;;
65031;SDS011;51593;55.714;37.436;2022-12-07T14:44:54;16.88;;;7.10;;
65031;SDS011;51593;55.714;37.436;2022-12-07T14:47:46;15.82;;;6.15;;
65031;SDS011;51593;55.714;37.436;2022-12-07T14:50:13;14.82;;;7.07;;
65031;SDS011;51593;55.714;37.436;2022-12-07T14:52:41;18.58;;;6.65;;
65031;SDS011;51593;55.714;37.436;2022-12-07T14:55:30;18.17;;;6.70;;
65031;SDS011;51593;55.714;37.436;2022-12-07T14:57:55;13.50;;;6.07;;
65031;SDS011;51593;55.714;37.436;2022-12-07T15:00:22;11.98;;;5.22;;
65031;SDS011;51593;55.714;37.436;2022-12-07T15:02:50;12.73;;;5.65;;
65031;SDS011;51593;55.714;37.436;2022-12-07T15:05:17;13.10;;;5.82;;
65031;SDS011;51593;55.714;37.436;2022-12-07T15:07:43;15.13;;;6.93;;
65031;SDS011;51593;55.714;37.436;2022-12-07T15:10:17;16.45;;;6.55;;
65031;SDS011;51593;55.714;37.436;2022-12-07T15:12:48;9.55;;;4.78;;
65031;SDS011;51593;55.714;37.436;2022-12-07T15:15:14;11.85;;;5.75;;
65031;SDS011;51593;55.714;37.436;2022-12-07T15:17:40;13.82;;;5.43;;
65031;SDS011;51593;55.714;37.436;2022-12-07T15:20:08;13.90;;;5.78;;
65031;SDS011;51593;55.714;37.436;2022-12-07T15:22:37;11.82;;;6.25;;
65031;SDS011;51593;55.714;37.436;2022-12-07T15:25:03;13.63;;;5.22;;
65031;SDS011;51593;55.714;37.436;2022-12-07T15:27:33;16.27;;;7.43;;
65031;SDS011;51593;55.714;37.436;2022-12-07T15:29:59;18.88;;;5.93;;
65031;SDS011;51593;55.714;37.436;2022-12-07T15:32:25;16.95;;;6.60;;
65031;SDS011;51593;55.714;37.436;2022-12-07T15:34:52;16.67;;;7.07;;
65031;SDS011;51593;55.714;37.436;2022-12-07T15:37:18;11.30;;;5.20;;
65031;SDS011;51593;55.714;37.436;2022-12-07T15:39:43;11.57;;;5.10;;
65031;SDS011;51593;55.714;37.436;2022-12-07T15:42:09;17.08;;;7.68;;
65031;SDS011;51593;55.714;37.436;2022-12-07T15:44:35;12.80;;;5.68;;
65031;SDS011;51593;55.714;37.436;2022-12-07T15:47:19;14.35;;;6.03;;
65031;SDS011;51593;55.714;37.436;2022-12-07T15:49:45;11.57;;;4.10;;
65031;SDS011;51593;55.714;37.436;2022-12-07T15:52:11;14.50;;;6.88;;
65031;SDS011;51593;55.714;37.436;2022-12-07T15:54:41;14.70;;;5.70;;
65031;SDS011;51593;55.714;37.436;2022-12-07T15:57:06;12.27;;;4.85;;
65031;SDS011;51593;55.714;37.436;2022-12-07T15:59:35;16.02;;;6.43;;
65031;SDS011;51593;55.714;37.436;2022-12-07T16:02:00;17.48;;;7.05;;
65031;SDS011;51593;55.714;37.436;2022-12-07T16:04:29;10.85;;;5.40;;
65031;SDS011;51593;55.714;37.436;2022-12-07T16:06:55;17.20;;;6.95;;
65031;SDS011;51593;55.714;37.436;2022-12-07T16:09:21;11.13;;;5.15;;
65031;SDS011;51593;55.714;37.436;2022-12-07T16:11:47;15.57;;;6.72;;
65031;SDS011;51593;55.714;37.436;2022-12-07T16:14:15;11.50;;;4.07;;
65031;SDS011;51593;55.714;37.436;2022-12-07T16:16:41;12.15;;;4.63;;
65031;SDS011;51593;55.714;37.436;2022-12-07T16:19:09;11.90;;;4.68;;
65031;SDS011;51593;55.714;37.436;2022-12-07T16:21:36;10.98;;;5.40;;
65031;SDS011;51593;55.714;37.436;2022-12-07T16:24:02;10.23;;;4.57;;
65031;SDS011;51593;55.714;37.436;2022-12-07T16:26:30;11.52;;;5.78;;
65031;SDS011;51593;55.714;37.436;2022-12-07T16:28:56;13.93;;;7.38;;
65031;SDS011;51593;55.714;37.436;2022-12-07T16:31:23;18.23;;;6.55;;
65031;SDS011;51593;55.714;37.436;2022-12-07T16:33:51;14.38;;;6.38;;
65031;SDS011;51593;55.714;37.436;2022-12-07T16:36:18;16.10;;;7.18;;
65031;SDS011;51593;55.714;37.436;2022-12-07T16:38:46;13.95;;;5.63;;
65031;SDS011;51593;55.714;37.436;2022-12-07T16:41:12;20.45;;;6.03;;
65031;SDS011;51593;55.714;37.436;2022-12-07T16:43:38;14.38;;;6.72;;
65031;SDS011;51593;55.714;37.436;2022-12-07T16:46:07;14.55;;;5.90;;
65031;SDS011;51593;55.714;37.436;2022-12-07T16:48:36;13.20;;;5.38;;
65031;SDS011;51593;55.714;37.436;2022-12-07T16:51:06;13.57;;;5.72;;
65031;SDS011;51593;55.714;37.436;2022-12-07T16:53:37;16.08;;;6.82;;
65031;SDS011;51593;55.714;37.436;2022-12-07T16:56:04;16.77;;;7.65;;